• Join FlightAware (Why Join?)
  • Login
  • US Flag 
01:13PM EST


 

Airport Tracker/Info


-or-


 

Live Flight TrackerFlight Track Log ✈ N469CR ✈ 16-Jul-2013 ✈ KBUF - KPVB

Flight Track Log - Related Links

Times and Time Zones

All times are in EDT time to prevent confusion due to time zone crossing. See the N469CR flight status page for this flight to view local times or setup timezone preferences in your user account.

Time Position Orientation Groundspeed Altitude Reporting Facility
EDT Latitude Longitude Course Direction KTS MPH feet Rate Location/Type
05:57PM 42.8260 -79.0870 246° West 146 168 3,400  Level FlightAware
05:58PM 42.8220 -79.1060 254° West 143 165 3,600 420 Climbing FlightAware
05:58PM 42.8240 -79.1300 276° West 142 163 3,800 240 Climbing FlightAware
05:58PM 42.8250 -79.1410 277° West 144 166 3,800 240 Level FlightAware
05:59PM 42.8270 -79.1650 276° West 148 170 4,000 300 Climbing FlightAware
05:59PM 42.8290 -79.1960 275° West 149 171 4,100 240 Climbing FlightAware
06:00PM 42.8300 -79.2290 272° West 148 170 4,300 300 Climbing FlightAware
06:00PM 42.8310 -79.2530 273° West 148 170 4,400 240 Climbing FlightAware
06:01PM 42.8320 -79.2760 273° West 148 170 4,500 300 Climbing FlightAware
06:01PM 42.8330 -79.3040 273° West 149 171 4,700 300 Climbing FlightAware
06:02PM 42.8340 -79.3310 273° West 150 173 4,800 300 Climbing FlightAware
06:02PM 42.8340 -79.3550 270° West 148 170 5,000 480 Climbing FlightAware
06:02PM 42.8350 -79.3790 273° West 141 162 5,200 480 Climbing FlightAware
06:03PM 42.8360 -79.3990 274° West 138 159 5,400 420 Climbing FlightAware
06:03PM 42.8360 -79.4260 270° West 134 154 5,600 420 Climbing FlightAware
06:04PM 42.8370 -79.4450 274° West 132 152 5,800 420 Climbing FlightAware
06:04PM 42.8380 -79.4700 273° West 134 154 6,000 360 Climbing FlightAware
06:05PM 42.8390 -79.4950 273° West 135 155 6,200 420 Climbing FlightAware
06:05PM 42.8390 -79.5040 270° West 135 155 6,300 420 Climbing FlightAware
06:05PM 42.8400 -79.5310 273° West 134 154 6,500 360 Climbing FlightAware
06:06PM 42.8410 -79.5430 276° West 134 154 6,600 480 Climbing FlightAware
06:06PM 42.8410 -79.5680 270° West 132 152 6,900 540 Climbing FlightAware
06:07PM 42.8420 -79.5890 274° West 132 152 7,100 360 Climbing FlightAware
06:07PM 42.8430 -79.6060 275° West 132 152 7,200 420 Climbing FlightAware
06:07PM 42.8430 -79.6200 270° West 132 152 7,400 420 Climbing FlightAware
06:08PM 42.8440 -79.6510 273° West 133 153 7,600 240 Climbing FlightAware
06:08PM 42.8450 -79.6770 273° West 141 162 7,700 60 Climbing FlightAware
06:09PM 42.8460 -79.7030 273° West 150 173 7,700  Level FlightAware
06:09PM 42.8460 -79.7140 270° West 151 174 7,700  Level FlightAware
06:09PM 42.8470 -79.7390 273° West 153 176 7,700  Level FlightAware
06:10PM 42.8480 -79.7560 275° West 153 176 7,700  Level FlightAware
06:10PM 42.8480 -79.7730 270° West 153 176 7,700  Level FlightAware
06:10PM 42.8490 -79.7960 273° West 151 174 7,700  Level FlightAware
06:11PM 42.8500 -79.8200 273° West 150 173 7,700  Level FlightAware
06:12PM 42.8510 -79.8630 272° West 153 176 7,700  Level FlightAware
06:12PM 42.8520 -79.8900 273° West 152 175 7,700  Level FlightAware
06:13PM 42.8530 -79.9200 273° West 153 176 7,700  Level FlightAware
06:13PM 42.8530 -79.9390 270° West 155 178 7,700  Level FlightAware
06:13PM 42.8540 -79.9680 273° West 152 175 7,700  Level FlightAware
06:14PM 42.8550 -79.9970 273° West 154 177 7,700  Level FlightAware
06:14PM 42.8560 -80.0210 273° West 156 180 7,700 60 Level FlightAware
06:15PM 42.8590 -80.0730 275° West 152 175 7,800  Climbing FlightAware
06:17PM 42.8770 -80.1840 283° West 156 180 7,700 -60 Descending FlightAware
06:18PM 42.8810 -80.2090 282° West 158 182 7,700  Level FlightAware
06:18PM 42.8860 -80.2430 281° West 158 182 7,700  Level FlightAware
06:24PM 42.9440 -80.5960 283° West 153 176 7,700  Level FlightAware
06:25PM 42.9500 -80.6300 284° West 153 176 7,700  Level FlightAware
06:26PM 42.9540 -80.6580 281° West 155 178 7,700  Level FlightAware
06:26PM 42.9620 -80.7060 283° West 155 178 7,700  Level FlightAware
06:27PM 42.9650 -80.7230 284° West 154 177 7,700  Level FlightAware
06:27PM 42.9710 -80.7540 285° West 155 178 7,700  Level FlightAware
06:28PM 42.9830 -80.7820 300° West 151 174 7,700  Level FlightAware
06:28PM 42.9940 -80.8060 302° West 152 175 7,700  Level FlightAware
06:29PM 43.0070 -80.8430 296° West 152 175 7,700  Level FlightAware
06:29PM 43.0140 -80.8670 292° West 154 177 7,700  Level FlightAware
06:30PM 43.0210 -80.8990 287° West 156 180 7,700  Level FlightAware
06:30PM 43.0220 -80.9060 281° West 155 178 7,700  Level FlightAware
06:31PM 43.0290 -80.9460 283° West 157 181 7,700  Level FlightAware
06:31PM 43.0330 -80.9680 284° West 155 178 7,700  Level FlightAware
06:32PM 43.0380 -81.0010 282° West 152 175 7,700  Level FlightAware
06:32PM 43.0420 -81.0220 285° West 154 177 7,700  Level FlightAware
06:33PM 43.0470 -81.0510 283° West 154 177 7,700  Level FlightAware
06:33PM 43.0490 -81.0680 279° West 152 175 7,700  Level FlightAware
06:33PM 43.0540 -81.0950 284° West 153 176 7,700  Level FlightAware
06:34PM 43.0560 -81.1030 289° West 153 176 7,700  Level FlightAware
06:34PM 43.0620 -81.1380 283° West 153 176 7,700  Level FlightAware
06:34PM 43.0630 -81.1480 278° West 154 177 7,700  Level FlightAware
06:35PM 43.0670 -81.1710 283° West 153 176 7,700  Level FlightAware
06:35PM 43.0710 -81.1950 283° West 149 171 7,700  Level FlightAware
06:36PM 43.0750 -81.2160 285° West 152 175 7,700  Level FlightAware
06:36PM 43.0780 -81.2350 282° West 152 175 7,700  Level FlightAware
06:36PM 43.0830 -81.2650 283° West 153 176 7,700  Level FlightAware
06:37PM 43.0880 -81.2910 285° West 153 176 7,700  Level FlightAware
06:37PM 43.0930 -81.3190 284° West 152 175 7,700  Level FlightAware
06:38PM 43.0970 -81.3390 285° West 152 175 7,700  Level FlightAware
06:38PM 43.1010 -81.3630 283° West 154 177 7,700  Level FlightAware
06:38PM 43.1020 -81.3720 279° West 154 177 7,700  Level FlightAware
06:39PM 43.1080 -81.4070 283° West 154 177 7,700  Level FlightAware
06:39PM 43.1120 -81.4290 284° West 148 170 7,700  Level FlightAware
06:40PM 43.1160 -81.4510 284° West 151 174 7,700  Level FlightAware
06:40PM 43.1170 -81.4640 276° West 152 175 7,700  Level FlightAware
06:40PM 43.1180 -81.4880 273° West 153 176 7,700  Level FlightAware
06:41PM 43.1200 -81.5130 276° West 156 180 7,700  Level FlightAware
06:41PM 43.1220 -81.5460 275° West 157 181 7,700  Level FlightAware
06:42PM 43.1230 -81.5630 275° West 157 181 7,700  Level FlightAware
06:42PM 43.1240 -81.5890 273° West 156 180 7,700  Level FlightAware
06:43PM 43.1250 -81.6230 272° West 156 180 7,700  Level FlightAware
06:43PM 43.1270 -81.6480 276° West 155 178 7,700  Level FlightAware
06:43PM 43.1280 -81.6600 277° West 156 180 7,700  Level FlightAware
06:44PM 43.1290 -81.6820 274° West 155 178 7,700  Level FlightAware
06:44PM 43.1310 -81.7200 274° West 156 180 7,700  Level FlightAware
06:45PM 43.1300 -81.7540 268° West 158 182 7,700  Level FlightAware
06:45PM 43.1290 -81.7840 267° West 157 181 7,700  Level FlightAware
06:46PM 43.1280 -81.8130 267° West 156 180 7,700  Level FlightAware
06:46PM 43.1280 -81.8310 270° West 156 180 7,700  Level FlightAware
06:46PM 43.1280 -81.8440 270° West 156 180 7,700  Level FlightAware
06:47PM 43.1270 -81.8900 268° West 155 178 7,700  Level FlightAware
06:48PM 43.1270 -81.9150 270° West 154 177 7,700  Level FlightAware
06:48PM 43.1260 -81.9320 265° West 155 178 7,700  Level FlightAware
06:49PM 43.1260 -81.9780 270° West 153 176 7,700  Level FlightAware
06:49PM 43.1260 -81.9830 270° West 153 176 7,700  Level FlightAware
06:49PM 43.1250 -82.0120 267° West 153 176 7,700  Level FlightAware
06:50PM 43.1250 -82.0520 270° West 154 177 7,700  Level FlightAware
06:50PM 43.1240 -82.0790 267° West 152 175 7,700  Level FlightAware
06:51PM 43.1240 -82.1080 270° West 152 175 7,700  Level FlightAware
06:51PM 43.1230 -82.1380 267° West 152 175 7,700  Level FlightAware
06:52PM 43.1230 -82.1480 270° West 151 174 7,700  Level FlightAware
06:52PM 43.1230 -82.1740 270° West 153 176 7,700  Level FlightAware
06:53PM 43.1220 -82.2040 267° West 155 178 7,700  Level FlightAware
06:53PM 43.1220 -82.2330 270° West 155 178 7,700  Level FlightAware
06:53PM 43.1210 -82.2450 263° West 155 178 7,700  Level FlightAware
06:54PM 43.1210 -82.2690 270° West 154 177 7,700  Level FlightAware
06:54PM 43.1210 -82.2950 270° West 154 177 7,700  Level FlightAware
06:55PM 43.1200 -82.3250 267° West 156 180 7,700  Level FlightAware
06:55PM 43.1200 -82.3550 270° West 157 181 7,700  Level FlightAware
06:55PM 43.1190 -82.3680 264° West 156 180 7,700  Level FlightAware
06:56PM 43.1190 -82.3910 270° West 156 180 7,700  Level FlightAware
06:56PM 43.1190 -82.4090 270° West 156 180 7,700  Level FlightAware
06:57PM 43.1180 -82.4380 267° West 156 180 7,700  Level FlightAware
06:57PM 43.1180 -82.4680 270° West 156 180 7,700  Level FlightAware
06:57PM 43.1170 -82.4880 266° West 156 180 7,700  Level FlightAware
06:58PM 43.1170 -82.5180 270° West 157 181 7,700  Level FlightAware
06:58PM 43.1160 -82.5480 267° West 156 180 7,700  Level FlightAware
06:59PM 43.1160 -82.5730 270° West 156 180 7,700  Level FlightAware
06:59PM 43.1150 -82.5960 267° West 157 181 7,700  Level FlightAware
07:00PM 43.1140 -82.6340 268° West 155 178 7,700  Level FlightAware
07:00PM 43.1140 -82.6630 270° West 156 180 7,700  Level FlightAware
07:01PM 43.1140 -82.6770 270° West 157 181 7,700  Level FlightAware
07:01PM 43.1130 -82.7050 267° West 157 181 7,700  Level FlightAware
07:02PM 43.1120 -82.7280 267° West 157 181 7,700  Level FlightAware
07:02PM 43.1120 -82.7730 270° West 158 182 7,700  Level FlightAware
07:02PM 43.1110 -82.7840 263° West 157 181 7,700  Level FlightAware
07:05PM 43.1070 -82.9620 268° West 159 183 7,700  Level FlightAware
07:08PM 43.1150 -83.1010 275° West 152 175 7,700  Level FlightAware
07:08PM 43.1170 -83.1190 279° West 153 176 7,700  Level FlightAware
07:09PM 43.1200 -83.1560 276° West 153 176 7,700 120 Level FlightAware
07:10PM 43.1000 -83.2167 276° West 150 173 8,000 120 Climbing Toronto Center
07:11PM 43.1167 -83.2667 295° West 150 173 8,000  Level Toronto Center
07:12PM 43.1167 -83.3333 270° West 150 173 8,000  Level Toronto Center
07:13PM 43.1167 -83.3833 270° West 150 173 8,000  Level Toronto Center
07:14PM 43.1333 -83.4500 289° West 150 173 8,000  Level Toronto Center
07:15PM 43.1333 -83.5000 270° West 150 173 8,000  Level Toronto Center
07:16PM 43.1333 -83.5667 270° West 160 184 8,000  Level Toronto Center
07:17PM 43.1333 -83.6167 270° West 160 184 8,000  Level Toronto Center
07:18PM 43.1333 -83.6833 270° West 160 184 8,000  Level Toronto Center
07:19PM 43.1167 -83.7500 251° West 160 184 8,000  Level Toronto Center
07:20PM 43.1167 -83.8167 270° West 160 184 8,000  Level Toronto Center
07:21PM 43.1281 -83.8853 283° West 159 183 8,000  Level Chicago Center
07:22PM 43.1247 -83.9453 266° West 159 183 8,000  Level Chicago Center
07:23PM 43.1236 -84.0064 269° West 159 183 8,000  Level Chicago Center
07:24PM 43.1197 -84.0786 266° West 159 183 8,000  Level Chicago Center
07:25PM 43.1172 -84.1386 267° West 160 184 8,000  Level Chicago Center
07:26PM 43.1161 -84.2006 269° West 162 186 8,000  Level Chicago Center
07:27PM 43.1133 -84.2606 266° West 161 185 8,000  Level Chicago Center
07:28PM 43.1100 -84.3203 266° West 160 184 8,000  Level Chicago Center
07:29PM 43.1067 -84.3811 266° West 160 184 8,000  Level Chicago Center
07:30PM 43.1044 -84.4536 268° West 160 184 8,000  Level Chicago Center
07:32PM 43.1025 -84.5133 267° West 159 183 8,000  Level Chicago Center
07:33PM 43.0994 -84.5731 266° West 159 183 8,000  Level Chicago Center
07:34PM 43.0967 -84.6339 266° West 160 184 8,000  Level Chicago Center
07:35PM 43.0944 -84.6936 267° West 158 182 8,000  Level Chicago Center
07:36PM 43.0906 -84.7539 265° West 160 184 8,000  Level Chicago Center
07:37PM 43.0878 -84.8256 267° West 159 183 8,000  Level Chicago Center
07:38PM 43.0844 -84.8850 266° West 158 182 8,000  Level Chicago Center
07:39PM 43.0819 -84.9461 267° West 159 183 8,000  Level Chicago Center
07:40PM 43.0792 -85.0058 266° West 158 182 8,000  Level Chicago Center
07:41PM 43.0758 -85.0661 266° West 160 184 8,000  Level Chicago Center
07:42PM 43.0725 -85.1375 266° West 159 183 8,000  Level Chicago Center
07:43PM 43.0697 -85.1967 266° West 158 182 8,000  Level Chicago Center
07:44PM 43.0675 -85.2569 267° West 160 184 8,000  Level Chicago Center
07:45PM 43.0647 -85.3161 266° West 158 182 8,000  Level Chicago Center
07:46PM 43.0611 -85.3758 265° West 159 183 8,000  Level Chicago Center
07:47PM 43.0578 -85.4356 266° West 159 183 8,000  Level Chicago Center
07:48PM 43.0542 -85.5064 266° West 158 182 8,000  Level Chicago Center
07:49PM 43.0514 -85.5633 266° West 152 175 8,000  Level Chicago Center
07:50PM 43.0481 -85.6233 266° West 157 181 8,000  Level Chicago Center
07:51PM 43.0444 -85.6825 265° West 158 182 8,000  Level Chicago Center
07:52PM 43.0417 -85.7422 266° West 158 182 8,000  Level Chicago Center
07:53PM 43.0386 -85.8017 266° West 156 180 8,000  Level Chicago Center
07:54PM 43.0344 -85.8731 265° West 157 181 8,000  Level Chicago Center
07:55PM 43.0311 -85.9311 266° West 152 175 8,000  Level Chicago Center
07:56PM 43.0267 -85.9936 264° West 157 181 8,000  Level Chicago Center
07:57PM 43.0239 -86.0575 267° West 162 186 8,000  Level Chicago Center
07:58PM 43.0203 -86.1161 265° West 156 180 8,000  Level Chicago Center
07:59PM 43.0172 -86.1753 266° West 156 180 8,000  Level Chicago Center
08:00PM 43.0136 -86.2347 265° West 157 181 8,000  Level Chicago Center
08:02PM 43.0108 -86.2947 266° West 158 182 8,000  Level Chicago Center
08:03PM 43.0061 -86.3678 265° West 160 184 8,000  Level Chicago Center
08:04PM 43.0028 -86.4261 266° West 155 178 8,000  Level Chicago Center
08:05PM 42.9986 -86.4869 265° West 158 182 8,000  Level Chicago Center
08:06PM 42.9956 -86.5481 266° West 162 186 8,000  Level Chicago Center
08:07PM 42.9917 -86.6078 265° West 161 185 8,000 -60 Level Chicago Center
08:12PM 42.9690 -86.9610 265° West 158 182 7,700 -60 Descending FlightAware
08:13PM 42.9660 -87.0070 265° West 158 182 7,700  Level FlightAware
08:14PM 42.9640 -87.0350 264° West 158 182 7,700  Level FlightAware
08:14PM 42.9620 -87.0620 264° West 157 181 7,700  Level FlightAware
08:14PM 42.9610 -87.0800 266° West 157 181 7,700  Level FlightAware
08:15PM 42.9600 -87.1010 266° West 157 181 7,700 180 Level FlightAware
08:16PM 42.9500 -87.1500 266° West 158 182 8,000 120 Climbing KMKE
08:17PM 42.9500 -87.2167 270° West 159 183 8,000  Level KMKE
08:18PM 42.9500 -87.2833 270° West 159 183 8,000  Level KMKE
08:19PM 42.9500 -87.3333 270° West 162 186 8,000  Level KMKE
08:20PM 42.9333 -87.4000 251° West 159 183 8,000 -60 Level KMKE
08:25PM 42.9180 -87.7150 251° West 161 185 7,700 -60 Descending FlightAware
08:25PM 42.9160 -87.7430 264° West 161 185 7,700  Level FlightAware
08:26PM 42.9140 -87.7760 265° West 165 190 7,700  Level FlightAware
08:26PM 42.9130 -87.7880 264° West 168 193 7,700  Level FlightAware
08:27PM 42.9110 -87.8160 264° West 169 194 7,700  Level FlightAware
08:27PM 42.9090 -87.8440 264° West 169 194 7,700  Level FlightAware
08:27PM 42.9070 -87.8660 263° West 168 193 7,700  Level FlightAware
08:28PM 42.9060 -87.8800 264° West 169 194 7,700  Level FlightAware
08:28PM 42.9050 -87.9020 266° West 168 193 7,700  Level FlightAware
08:29PM 42.9020 -87.9350 263° West 168 193 7,700  Level FlightAware
08:29PM 42.8990 -87.9750 264° West 167 192 7,700  Level FlightAware
08:30PM 42.8970 -88.0060 265° West 168 193 7,700  Level FlightAware
08:30PM 42.8950 -88.0290 263° West 168 193 7,700  Level FlightAware
08:30PM 42.8930 -88.0620 265° West 168 193 7,700  Level FlightAware
08:31PM 42.8900 -88.0910 262° West 170 196 7,700  Level FlightAware
08:31PM 42.8880 -88.1250 265° West 169 194 7,700  Level FlightAware
08:32PM 42.8860 -88.1570 265° West 168 193 7,700  Level FlightAware
08:33PM 42.8830 -88.1970 264° West 169 194 7,700  Level FlightAware
08:33PM 42.8810 -88.2140 261° West 167 192 7,700  Level FlightAware
08:33PM 42.8790 -88.2390 264° West 166 191 7,700  Level FlightAware
08:34PM 42.8780 -88.2560 265° West 165 190 7,700  Level FlightAware
08:34PM 42.8760 -88.2810 264° West 166 191 7,700  Level FlightAware
08:34PM 42.8750 -88.2980 265° West 166 191 7,700  Level FlightAware
08:35PM 42.8700 -88.3530 263° West 169 194 7,700  Level FlightAware
08:35PM 42.8680 -88.3770 264° West 167 192 7,700  Level FlightAware
08:36PM 42.8670 -88.3980 266° West 167 192 7,700  Level FlightAware
08:36PM 42.8650 -88.4250 264° West 167 192 7,700  Level FlightAware
08:37PM 42.8620 -88.4540 262° West 169 194 7,700  Level FlightAware
08:37PM 42.8600 -88.4810 264° West 167 192 7,700  Level FlightAware
08:38PM 42.8570 -88.5120 262° West 167 192 7,700  Level FlightAware
08:38PM 42.8550 -88.5370 264° West 165 190 7,700  Level FlightAware
08:38PM 42.8530 -88.5640 264° West 168 193 7,700  Level FlightAware
08:39PM 42.8510 -88.5890 264° West 166 191 7,700  Level FlightAware
08:39PM 42.8490 -88.6160 264° West 164 189 7,700  Level FlightAware
08:40PM 42.8470 -88.6470 265° West 165 190 7,700  Level FlightAware
08:40PM 42.8450 -88.6740 264° West 163 188 7,700  Level FlightAware
08:41PM 42.8430 -88.7050 265° West 164 189 7,700  Level FlightAware
08:41PM 42.8410 -88.7210 260° West 164 189 7,700  Level FlightAware
08:41PM 42.8400 -88.7440 267° West 164 189 7,700  Level FlightAware
08:42PM 42.8370 -88.7730 262° West 167 192 7,700  Level FlightAware
08:42PM 42.8360 -88.7850 264° West 166 191 7,700  Level FlightAware
08:43PM 42.8330 -88.8210 264° West 166 191 7,700  Level FlightAware
08:43PM 42.8310 -88.8460 264° West 166 191 7,700  Level FlightAware
08:43PM 42.8290 -88.8710 264° West 165 190 7,700  Level FlightAware
08:44PM 42.8260 -88.9080 264° West 168 193 7,700  Level FlightAware
08:44PM 42.8240 -88.9320 264° West 168 193 7,700  Level FlightAware
08:45PM 42.8210 -88.9620 262° West 166 191 7,700  Level FlightAware
08:45PM 42.8190 -88.9900 264° West 167 192 7,700  Level FlightAware
08:46PM 42.8170 -89.0200 265° West 167 192 7,700  Level FlightAware
08:46PM 42.8140 -89.0490 262° West 167 192 7,700  Level FlightAware
08:47PM 42.8120 -89.0780 265° West 163 188 7,700  Level FlightAware
08:47PM 42.8090 -89.1070 262° West 165 190 7,700  Level FlightAware
08:48PM 42.8070 -89.1350 264° West 165 190 7,700  Level FlightAware
08:48PM 42.8050 -89.1570 263° West 165 190 7,700  Level FlightAware
08:48PM 42.8040 -89.1750 266° West 167 192 7,700  Level FlightAware
08:49PM 42.8010 -89.2040 262° West 167 192 7,700  Level FlightAware
08:49PM 42.7990 -89.2330 265° West 168 193 7,700  Level FlightAware
08:50PM 42.7960 -89.2630 262° West 168 193 7,700  Level FlightAware
08:50PM 42.7930 -89.2940 262° West 166 191 7,700  Level FlightAware
08:51PM 42.7910 -89.3220 264° West 168 193 7,700  Level FlightAware
08:51PM 42.7890 -89.3510 265° West 169 194 7,700  Level FlightAware
08:51PM 42.7880 -89.3630 264° West 169 194 7,700  Level FlightAware
08:52PM 42.7850 -89.3930 262° West 167 192 7,700  Level FlightAware
08:52PM 42.7830 -89.4250 265° West 169 194 7,700  Level FlightAware
08:53PM 42.7800 -89.4540 262° West 166 191 7,700  Level FlightAware
08:53PM 42.7780 -89.4750 263° West 169 194 7,700  Level FlightAware
08:53PM 42.7750 -89.5070 263° West 169 194 7,700  Level FlightAware
08:54PM 42.7730 -89.5340 264° West 169 194 7,700  Level FlightAware
08:54PM 42.7710 -89.5470 258° West 169 194 7,700  Level FlightAware
08:55PM 42.7690 -89.5740 264° West 167 192 7,700  Level FlightAware
08:55PM 42.7670 -89.5990 264° West 167 192 7,700 -240 Level FlightAware
08:55PM 42.7660 -89.6340 268° West 180 207 7,500 -540 Descending FlightAware
08:56PM 42.7660 -89.6620 270° West 187 215 7,200 -780 Descending FlightAware
08:56PM 42.7660 -89.6920 270° West 190 219 6,900 -660 Descending FlightAware
08:57PM 42.7660 -89.7610 270° West 186 214 6,300 -720 Descending FlightAware
08:58PM 42.7650 -89.8030 268° West 187 215 5,800 -780 Descending FlightAware
08:58PM 42.7650 -89.8340 270° West 186 214 5,500 -720 Descending FlightAware
08:59PM 42.7650 -89.8670 270° West 185 213 5,200 -660 Descending FlightAware
08:59PM 42.7650 -89.9010 270° West 183 211 4,900 -780 Descending FlightAware
09:00PM 42.7650 -89.9330 270° West 185 213 4,500 -780 Descending FlightAware
09:00PM 42.7650 -89.9670 270° West 185 213 4,200 -660 Descending FlightAware
09:01PM 42.7650 -89.9980 270° West 184 212 3,900 -780 Descending FlightAware
09:01PM 42.7650 -90.0420 270° West 181 208 3,400 -780 Descending FlightAware
09:02PM 42.7650 -90.1010 270° West 181 208 2,800 -540 Descending FlightAware
09:03PM 42.7650 -90.1360 270° West 167 192 2,700 -120 Descending FlightAware
09:03PM 42.7650 -90.1640 270° West 156 180 2,700  Level FlightAware
09:04PM 42.7620 -90.1900 261° West 148 170 2,700  Level FlightAware
09:04PM 42.7560 -90.2080 246° West 148 170 2,700  Level FlightAware
09:05PM 42.7490 -90.2360 251° West 156 180 2,700  Level FlightAware
09:05PM 42.7420 -90.2600 248° West 159 183 2,700  Level FlightAware
09:05PM 42.7350 -90.2890 252° West 162 186 2,700 -180 Level FlightAware
09:06PM 42.7350 -90.2990 270° West 169 194 2,600 -120 Descending FlightAware
09:07PM 42.7430 -90.3600 280° West 161 185 2,600  Level FlightAware